This is the latest recevied weather packets stored in our database for station/object DK4EP-10. If no packets are shown the sender has not sent any weather packets the latest 10 day(s).
| Time | Temp. | Humidity | Pressure | Rain* | Wind** | Luminosity | Snow |
|---|---|---|---|---|---|---|---|
| 1777677652 | 5.56° C | 100% | 1002 hPa | - | - | - | - |
| 1777676751 | 5.56° C | 100% | 1002 hPa | - | - | - | - |
| 1777675850 | 5.56° C | 99% | 1002 hPa | - | - | - | - |
| 1777674949 | 5.56° C | 98% | 1002 hPa | - | - | - | - |
| 1777674048 | 6.11° C | 98% | 1002 hPa | - | - | - | - |
| 1777673146 | 6.11° C | 98% | 1002 hPa | - | - | - | - |
| 1777672245 | 6.11° C | 96% | 1003 hPa | - | - | - | - |
| 1777671344 | 6.67° C | 95% | 1003 hPa | - | - | - | - |
| 1777670443 | 6.67° C | 94% | 1002 hPa | - | - | - | - |
| 1777669541 | 7.22° C | 93% | 1003 hPa | - | - | - | - |
| 1777668640 | 7.78° C | 92% | 1003 hPa | - | - | - | - |
| 1777667739 | 7.78° C | 91% | 1002 hPa | - | - | - | - |
| 1777666838 | 8.33° C | 89% | 1003 hPa | - | - | - | - |
| 1777665937 | 8.33° C | 89% | 1003 hPa | - | - | - | - |
| 1777665035 | 8.89° C | 88% | 1003 hPa | - | - | - | - |
| 1777664134 | 9.44° C | 84% | 1003 hPa | - | - | - | - |
| 1777663233 | 10° C | 82% | 1003 hPa | - | - | - | - |
| 1777662332 | 10.56° C | 80% | 1003 hPa | - | - | - | - |
| 1777661431 | 11.67° C | 77% | 1003 hPa | - | - | - | - |
| 1777660530 | 12.22° C | 75% | 1002 hPa | - | - | - | - |
| 1777659628 | 13.33° C | 71% | 1002 hPa | - | - | - | - |
| 1777658727 | 15° C | 67% | 1002 hPa | - | - | - | - |
| 1777657826 | 16.67° C | 64% | 1002 hPa | - | - | - | - |
| 1777656925 | 17.78° C | 62% | 1002 hPa | - | - | - | - |
| 1777656024 | 19.44° C | 56% | 1002 hPa | - | - | - | - |
* Rain since midnight (hover to see other rain measurements)
** Current wind speed in m/s (hover to see current wind gust speed)